createdAt,value
2017-03-13T00:00:19.988Z,0
2017-03-13T00:01:29.914Z,0
2017-03-13T00:02:38.913Z,0
2017-03-13T00:03:48.652Z,0
2017-03-13T00:04:57.902Z,0
2017-03-13T00:06:07.801Z,0
2017-03-13T00:07:18.323Z,0
2017-03-13T00:08:28.650Z,0
2017-03-13T00:09:37.738Z,0
2017-03-13T00:10:48.830Z,0
2017-03-13T00:11:57.829Z,0
2017-03-13T00:13:07.876Z,0
2017-03-13T00:14:17.630Z,0
2017-03-13T00:15:27.362Z,0
2017-03-13T00:16:36.722Z,0
2017-03-13T00:17:45.728Z,0
2017-03-13T00:18:55.317Z,0
2017-03-13T00:20:04.413Z,0
2017-03-13T00:21:14.106Z,0
2017-03-13T00:22:23.549Z,0
2017-03-13T00:23:32.908Z,0
2017-03-13T00:24:43.962Z,0
2017-03-13T00:25:56.139Z,0
2017-03-13T00:27:05.997Z,0
2017-03-13T00:28:17.350Z,0
2017-03-13T00:29:29.159Z,0
2017-03-13T00:30:39.343Z,0
2017-03-13T00:31:50.189Z,0
2017-03-13T00:33:01.381Z,0
2017-03-13T00:34:10.395Z,0
2017-03-13T00:35:22.125Z,0
2017-03-13T00:36:32.430Z,0
2017-03-13T00:37:41.971Z,0
2017-03-13T00:38:51.423Z,0
2017-03-13T00:40:00.662Z,0
2017-03-13T00:41:10.869Z,0
2017-03-13T00:42:20.409Z,0
2017-03-13T00:43:32.802Z,0
2017-03-13T00:44:42.870Z,0
2017-03-13T00:45:53.671Z,0
2017-03-13T00:47:05.403Z,0
2017-03-13T00:48:15.547Z,0
2017-03-13T00:49:24.681Z,0
2017-03-13T00:50:33.930Z,0
2017-03-13T00:51:43.122Z,0
2017-03-13T00:52:53.316Z,0
2017-03-13T00:54:04.115Z,0
2017-03-13T00:55:16.215Z,0
2017-03-13T00:56:25.931Z,0
2017-03-13T00:57:35.120Z,0
2017-03-13T00:58:44.791Z,0
2017-03-13T00:59:56.246Z,0
2017-03-13T01:01:08.663Z,0
2017-03-13T01:02:18.293Z,0
2017-03-13T01:03:28.863Z,0
2017-03-13T01:04:39.057Z,0
2017-03-13T01:05:48.368Z,0
2017-03-13T01:07:00.413Z,0
2017-03-13T01:08:10.407Z,0
2017-03-13T01:09:21.703Z,0
2017-03-13T01:10:34.047Z,0
2017-03-13T01:11:44.609Z,0
2017-03-13T01:12:54.102Z,0
2017-03-13T01:14:04.313Z,0
2017-03-13T01:15:13.300Z,0
2017-03-13T01:16:23.286Z,0
2017-03-13T01:17:32.593Z,0
2017-03-13T01:18:44.052Z,0
2017-03-13T01:19:54.098Z,0
2017-03-13T01:21:03.257Z,0
2017-03-13T01:22:13.395Z,0
2017-03-13T01:23:24.092Z,0
2017-03-13T01:24:34.367Z,0
2017-03-13T01:25:43.451Z,0
2017-03-13T01:26:53.360Z,0
2017-03-13T01:28:02.523Z,0
2017-03-13T01:29:13.544Z,0
2017-03-13T01:30:23.651Z,0
2017-03-13T01:31:34.754Z,0
2017-03-13T01:32:47.395Z,0
2017-03-13T01:33:57.875Z,0
2017-03-13T01:35:09.035Z,0
2017-03-13T01:36:20.918Z,0
2017-03-13T01:37:30.379Z,0
2017-03-13T01:38:40.989Z,0
2017-03-13T01:39:51.302Z,0
2017-03-13T01:41:01.026Z,0
2017-03-13T01:42:12.504Z,0
2017-03-13T01:43:22.374Z,0
2017-03-13T01:44:32.724Z,0
2017-03-13T01:45:43.033Z,0
2017-03-13T01:46:52.446Z,0
2017-03-13T01:48:04.688Z,0
2017-03-13T01:49:14.999Z,0
2017-03-13T01:50:25.491Z,0
2017-03-13T01:51:37.701Z,0
2017-03-13T01:52:47.636Z,0
2017-03-13T01:53:56.960Z,0
2017-03-13T01:55:06.387Z,0
2017-03-13T01:56:16.906Z,0
2017-03-13T01:57:27.298Z,0
2017-03-13T01:58:37.698Z,0
2017-03-13T01:59:47.971Z,0
2017-03-13T02:00:58.099Z,0
2017-03-13T02:02:07.268Z,0
2017-03-13T02:03:17.574Z,0
2017-03-13T02:04:28.405Z,0
2017-03-13T02:05:40.402Z,0
2017-03-13T02:06:50.339Z,0
2017-03-13T02:08:01.072Z,0
2017-03-13T02:09:11.061Z,0
2017-03-13T02:10:20.408Z,0
2017-03-13T02:11:32.066Z,0
2017-03-13T02:12:42.435Z,0
2017-03-13T02:13:52.937Z,0
2017-03-13T02:15:03.082Z,0
2017-03-13T02:16:12.734Z,0
2017-03-13T02:17:23.935Z,0
2017-03-13T02:18:34.263Z,0
2017-03-13T02:19:44.849Z,0
2017-03-13T02:20:55.181Z,0
2017-03-13T02:22:04.508Z,0
2017-03-13T02:23:14.660Z,0
2017-03-13T02:24:23.921Z,0
2017-03-13T02:25:32.911Z,0
2017-03-13T02:26:41.899Z,0
2017-03-13T02:27:51.782Z,0
2017-03-13T02:29:00.814Z,0
2017-03-13T02:30:10.397Z,0
2017-03-13T02:31:19.559Z,0
2017-03-13T02:32:29.078Z,0
2017-03-13T02:33:38.446Z,0
2017-03-13T02:34:49.156Z,0
2017-03-13T02:35:59.372Z,0
2017-03-13T02:37:08.664Z,0
2017-03-13T02:38:17.883Z,0
2017-03-13T02:39:27.387Z,0
2017-03-13T02:40:36.476Z,0
2017-03-13T02:41:45.561Z,0
2017-03-13T02:42:55.143Z,0
2017-03-13T02:44:04.385Z,0
2017-03-13T02:45:14.026Z,0
2017-03-13T02:46:23.416Z,0
2017-03-13T02:47:33.036Z,0
2017-03-13T02:48:43.146Z,0
2017-03-13T02:49:52.650Z,0
2017-03-13T02:51:02.869Z,0
2017-03-13T02:52:12.744Z,0
2017-03-13T02:53:21.748Z,0
2017-03-13T02:54:31.647Z,0
2017-03-13T02:55:40.720Z,0
2017-03-13T02:56:51.517Z,0
2017-03-13T02:58:00.529Z,0
2017-03-13T02:59:09.787Z,0
2017-03-13T03:00:18.877Z,0
2017-03-13T03:01:28.689Z,0
2017-03-13T03:02:37.929Z,0
2017-03-13T03:03:47.636Z,0
2017-03-13T03:04:56.661Z,0
2017-03-13T03:06:06.029Z,0
2017-03-13T03:07:15.122Z,0
2017-03-13T03:08:24.933Z,0
2017-03-13T03:09:33.921Z,0
2017-03-13T03:10:44.041Z,0
2017-03-13T03:11:53.616Z,0
2017-03-13T03:13:03.017Z,0
2017-03-13T03:14:13.141Z,0
2017-03-13T03:15:23.269Z,0
2017-03-13T03:16:32.286Z,0
2017-03-13T03:17:42.247Z,0
2017-03-13T03:18:52.864Z,0
2017-03-13T03:20:02.208Z,0
2017-03-13T03:21:11.769Z,0
2017-03-13T03:22:20.841Z,0
2017-03-13T03:23:30.063Z,0
2017-03-13T03:24:39.295Z,0
2017-03-13T03:25:50.820Z,0
2017-03-13T03:27:00.537Z,0
2017-03-13T03:28:11.579Z,0
2017-03-13T03:29:21.982Z,0
2017-03-13T03:30:31.343Z,0
2017-03-13T03:31:43.232Z,0
2017-03-13T03:32:52.922Z,0
2017-03-13T03:34:01.916Z,0
2017-03-13T03:35:11.809Z,0
2017-03-13T03:36:22.099Z,0
2017-03-13T03:37:32.449Z,0
2017-03-13T03:38:41.544Z,0
2017-03-13T03:39:51.690Z,0
2017-03-13T03:41:00.698Z,0
2017-03-13T03:42:10.532Z,0
2017-03-13T03:43:19.931Z,0
2017-03-13T03:44:30.435Z,0
2017-03-13T03:45:40.585Z,0
2017-03-13T03:46:51.507Z,0
2017-03-13T03:48:01.680Z,0
2017-03-13T03:49:10.920Z,0
2017-03-13T03:50:21.114Z,0
2017-03-13T03:51:30.598Z,0
2017-03-13T03:52:39.756Z,0
2017-03-13T03:53:48.855Z,0
2017-03-13T03:54:59.956Z,0
2017-03-13T03:56:10.044Z,0
2017-03-13T03:57:19.273Z,0
2017-03-13T03:58:28.931Z,0
2017-03-13T03:59:37.940Z,0
2017-03-13T04:00:48.842Z,0
2017-03-13T04:02:01.500Z,0
2017-03-13T04:03:11.429Z,0
2017-03-13T04:04:21.826Z,0
2017-03-13T04:05:32.143Z,0
2017-03-13T04:06:45.113Z,0
2017-03-13T04:07:55.062Z,0
2017-03-13T04:09:05.063Z,0
2017-03-13T04:10:15.737Z,0
2017-03-13T04:11:24.813Z,0
2017-03-13T04:12:36.818Z,0
2017-03-13T04:13:46.293Z,0
2017-03-13T04:14:55.484Z,0
2017-03-13T04:16:05.751Z,0
2017-03-13T04:17:16.147Z,0
2017-03-13T04:18:28.820Z,0
2017-03-13T04:19:38.689Z,0
2017-03-13T04:20:49.612Z,0
2017-03-13T04:22:02.151Z,0
2017-03-13T04:23:12.556Z,0
2017-03-13T04:24:23.004Z,0
2017-03-13T04:25:35.190Z,0
2017-03-13T04:26:45.578Z,0
2017-03-13T04:27:55.989Z,0
2017-03-13T04:29:08.079Z,0
2017-03-13T04:30:18.404Z,0
2017-03-13T04:31:29.425Z,0
2017-03-13T04:32:41.692Z,0
2017-03-13T04:33:51.835Z,0
2017-03-13T04:35:01.245Z,0
2017-03-13T04:36:10.730Z,0
2017-03-13T04:37:19.722Z,0
2017-03-13T04:38:29.347Z,0
2017-03-13T04:39:38.338Z,0
2017-03-13T04:40:47.348Z,0
2017-03-13T04:41:56.589Z,0
2017-03-13T04:43:05.667Z,0
2017-03-13T04:44:14.758Z,0
2017-03-13T04:45:23.859Z,0
2017-03-13T04:46:32.870Z,0
2017-03-13T04:47:42.166Z,0
2017-03-13T04:48:51.151Z,0
2017-03-13T04:50:00.393Z,0
2017-03-13T04:51:09.478Z,0
2017-03-13T04:52:18.490Z,0
2017-03-13T04:53:27.731Z,0
2017-03-13T04:54:36.716Z,0
2017-03-13T04:55:45.714Z,0
2017-03-13T04:56:54.788Z,0
2017-03-13T04:58:03.955Z,0
2017-03-13T04:59:13.200Z,4
2017-03-13T05:00:22.366Z,4
2017-03-13T05:01:31.473Z,0
2017-03-13T05:02:41.293Z,4
2017-03-13T05:03:50.988Z,4
2017-03-13T05:05:00.236Z,4
2017-03-13T05:06:09.316Z,8
2017-03-13T05:07:18.512Z,8
2017-03-13T05:08:27.612Z,8
2017-03-13T05:09:36.620Z,8
2017-03-13T05:10:45.857Z,12
2017-03-13T05:11:54.958Z,12
2017-03-13T05:13:03.954Z,12
2017-03-13T05:14:12.958Z,20
2017-03-13T05:15:22.127Z,20
2017-03-13T05:16:31.450Z,20
2017-03-13T05:17:40.558Z,28
2017-03-13T05:18:49.548Z,28
2017-03-13T05:19:58.631Z,32
2017-03-13T05:21:07.735Z,40
2017-03-13T05:22:17.045Z,44
2017-03-13T05:23:26.045Z,48
2017-03-13T05:24:35.659Z,56
2017-03-13T05:25:44.640Z,60
2017-03-13T05:26:53.646Z,64
2017-03-13T05:28:02.919Z,76
2017-03-13T05:29:11.933Z,80
2017-03-13T05:30:20.927Z,88
2017-03-13T05:31:29.927Z,100
2017-03-13T05:32:39.003Z,108
2017-03-13T05:33:48.134Z,120
2017-03-13T05:34:57.129Z,132
2017-03-13T05:36:06.222Z,148
2017-03-13T05:37:15.383Z,164
2017-03-13T05:38:24.709Z,176
2017-03-13T05:39:33.790Z,188
2017-03-13T05:40:42.824Z,204
2017-03-13T05:41:51.921Z,220
2017-03-13T05:43:00.926Z,236
2017-03-13T05:44:10.222Z,248
2017-03-13T05:45:19.210Z,264
2017-03-13T05:46:28.202Z,284
2017-03-13T05:47:37.187Z,304
2017-03-13T05:48:46.181Z,320
2017-03-13T05:49:55.521Z,328
2017-03-13T05:51:04.607Z,340
2017-03-13T05:52:13.676Z,348
2017-03-13T05:53:22.697Z,352
2017-03-13T05:54:31.684Z,368
2017-03-13T05:55:40.945Z,380
2017-03-13T05:56:50.033Z,416
2017-03-13T05:57:59.197Z,452
2017-03-13T05:59:08.220Z,496
2017-03-13T06:00:17.353Z,556
2017-03-13T06:01:26.671Z,612
2017-03-13T06:02:35.669Z,656
2017-03-13T06:03:44.742Z,692
2017-03-13T06:04:53.722Z,724
2017-03-13T06:06:02.897Z,740
2017-03-13T06:07:12.625Z,772
2017-03-13T06:08:21.630Z,816
2017-03-13T06:09:30.600Z,848
2017-03-13T06:10:39.583Z,848
2017-03-13T06:11:48.583Z,852
2017-03-13T06:12:57.875Z,856
2017-03-13T06:14:06.942Z,884
2017-03-13T06:15:16.039Z,912
2017-03-13T06:16:25.032Z,964
2017-03-13T06:17:34.207Z,1020
2017-03-13T06:18:44.594Z,1060
2017-03-13T06:19:53.676Z,1088
2017-03-13T06:21:02.773Z,1096
2017-03-13T06:22:11.949Z,1116
2017-03-13T06:23:21.039Z,1128
2017-03-13T06:24:30.384Z,1148
2017-03-13T06:25:39.449Z,1180
2017-03-13T06:26:48.441Z,1224
2017-03-13T06:27:57.456Z,1268
2017-03-13T06:29:06.449Z,1324
2017-03-13T06:30:15.706Z,1364
2017-03-13T06:31:24.699Z,1380
2017-03-13T06:32:33.740Z,1392
2017-03-13T06:33:43.220Z,1428
2017-03-13T06:34:52.253Z,1420
2017-03-13T06:36:01.492Z,1372
2017-03-13T06:37:10.492Z,1368
2017-03-13T06:38:19.491Z,1360
2017-03-13T06:39:28.577Z,1352
2017-03-13T06:40:37.562Z,1376
2017-03-13T06:41:46.918Z,1412
2017-03-13T06:42:56.309Z,1444
2017-03-13T06:44:05.761Z,1476
2017-03-13T06:45:24.602Z,1512
2017-03-13T06:46:47.270Z,1460
2017-03-13T06:47:56.344Z,1368
2017-03-13T06:49:05.464Z,1384
2017-03-13T06:50:14.771Z,1476
2017-03-13T06:51:24.089Z,1496
2017-03-13T06:52:33.422Z,1420
2017-03-13T06:53:42.769Z,1416
2017-03-13T06:54:51.930Z,1428
2017-03-13T06:56:01.043Z,1516
2017-03-13T06:57:10.227Z,1576
2017-03-13T06:58:19.612Z,1576
2017-03-13T06:59:28.723Z,1536
2017-03-13T07:00:37.959Z,1516
2017-03-13T07:01:46.951Z,1484
2017-03-13T07:02:55.946Z,1416
2017-03-13T07:04:06.063Z,1408
2017-03-13T07:05:15.156Z,1412
2017-03-13T07:06:24.182Z,1404
2017-03-13T07:07:33.292Z,1348
2017-03-13T07:08:42.338Z,1360
2017-03-13T07:09:51.793Z,1416
2017-03-13T07:11:00.900Z,1396
2017-03-13T07:12:10.495Z,1440
2017-03-13T07:13:19.535Z,1516
2017-03-13T07:14:28.621Z,1504
2017-03-13T07:15:37.887Z,1484
2017-03-13T07:16:47.065Z,1500
2017-03-13T07:17:56.093Z,1540
2017-03-13T07:19:05.181Z,1640
2017-03-13T07:20:14.217Z,1624
2017-03-13T07:21:23.644Z,1724
2017-03-13T07:22:32.645Z,1864
2017-03-13T07:23:41.716Z,1984
2017-03-13T07:24:50.718Z,1988
2017-03-13T07:26:00.088Z,2028
2017-03-13T07:27:09.402Z,2184
2017-03-13T07:28:18.665Z,2240
2017-03-13T07:29:27.742Z,2256
2017-03-13T07:30:36.791Z,2184
2017-03-13T07:31:45.789Z,2072
2017-03-13T07:32:55.192Z,2160
2017-03-13T07:34:04.383Z,2344
2017-03-13T07:35:13.375Z,2516
2017-03-13T07:36:22.456Z,2572
2017-03-13T07:37:31.569Z,2528
2017-03-13T07:38:40.853Z,2384
2017-03-13T07:39:50.814Z,2508
2017-03-13T07:41:00.218Z,2564
2017-03-13T07:42:09.865Z,2464
2017-03-13T07:43:18.952Z,2572
2017-03-13T07:44:28.504Z,2708
2017-03-13T07:45:37.615Z,2780
2017-03-13T07:46:46.703Z,2920
2017-03-13T07:47:55.781Z,3052
2017-03-13T07:49:05.067Z,3268
2017-03-13T07:50:14.440Z,3344
2017-03-13T07:51:23.520Z,3304
2017-03-13T07:52:32.956Z,3060
2017-03-13T07:53:42.039Z,2888
2017-03-13T07:54:51.410Z,2928
2017-03-13T07:56:00.978Z,2920
2017-03-13T07:57:10.126Z,2712
2017-03-13T07:58:19.522Z,2652
2017-03-13T07:59:28.508Z,2756
2017-03-13T08:00:37.840Z,2812
2017-03-13T08:01:47.152Z,2736
2017-03-13T08:02:56.141Z,2892
2017-03-13T08:04:05.130Z,2756
2017-03-13T08:05:14.115Z,2556
2017-03-13T08:06:23.207Z,2484
2017-03-13T08:07:32.845Z,2352
2017-03-13T08:08:41.909Z,2340
2017-03-13T08:09:51.188Z,2300
2017-03-13T08:11:00.360Z,2332
2017-03-13T08:12:09.367Z,2308
2017-03-13T08:13:18.677Z,2304
2017-03-13T08:14:27.662Z,2404
2017-03-13T08:15:36.881Z,2536
2017-03-13T08:16:45.868Z,2660
2017-03-13T08:17:54.870Z,2680
2017-03-13T08:19:04.278Z,2660
2017-03-13T08:20:13.283Z,2808
2017-03-13T08:21:22.281Z,2968
2017-03-13T08:22:31.359Z,2992
2017-03-13T08:23:40.453Z,2984
2017-03-13T08:24:49.703Z,3168
2017-03-13T08:25:58.708Z,3376
2017-03-13T08:27:07.759Z,3360
2017-03-13T08:28:16.898Z,3144
2017-03-13T08:29:25.969Z,2880
2017-03-13T08:30:35.225Z,2696
2017-03-13T08:31:44.226Z,2632
2017-03-13T08:32:53.223Z,2668
2017-03-13T08:34:02.393Z,2584
2017-03-13T08:35:11.419Z,2440
2017-03-13T08:36:20.706Z,2428
2017-03-13T08:37:29.698Z,2432
2017-03-13T08:38:38.790Z,2256
2017-03-13T08:39:47.887Z,2156
2017-03-13T08:40:56.874Z,2136
2017-03-13T08:42:06.362Z,2208
2017-03-13T08:43:15.356Z,2344
2017-03-13T08:44:24.779Z,2396
2017-03-13T08:45:33.793Z,2288
2017-03-13T08:46:42.797Z,2196
2017-03-13T08:47:52.086Z,2196
2017-03-13T08:49:01.100Z,2252
2017-03-13T08:50:10.523Z,2280
2017-03-13T08:51:19.606Z,2276
2017-03-13T08:52:28.693Z,2084
2017-03-13T08:53:38.070Z,1768
2017-03-13T08:54:47.547Z,1536
2017-03-13T08:55:56.630Z,1412
2017-03-13T08:57:05.629Z,1408
2017-03-13T08:58:14.617Z,1488
2017-03-13T08:59:23.925Z,1552
2017-03-13T09:00:32.941Z,1412
2017-03-13T09:01:41.941Z,1424
2017-03-13T09:02:51.029Z,1496
2017-03-13T09:04:00.024Z,1644
2017-03-13T09:05:09.309Z,1956
2017-03-13T09:06:18.337Z,2200
2017-03-13T09:07:27.429Z,2316
2017-03-13T09:08:36.443Z,2380
2017-03-13T09:09:45.463Z,2460
2017-03-13T09:10:54.708Z,2492
2017-03-13T09:12:03.705Z,2516
2017-03-13T09:13:12.710Z,2540
2017-03-13T09:14:21.793Z,2604
2017-03-13T09:15:30.883Z,2704
2017-03-13T09:16:40.181Z,2796
2017-03-13T09:17:49.188Z,2848
2017-03-13T09:18:58.198Z,2912
2017-03-13T09:20:07.211Z,2996
2017-03-13T09:21:16.396Z,3048
2017-03-13T09:22:25.647Z,3124
2017-03-13T09:23:34.634Z,3140
2017-03-13T09:24:43.618Z,3104
2017-03-13T09:25:52.606Z,3076
2017-03-13T09:27:01.623Z,3024
2017-03-13T09:28:11.005Z,3020
2017-03-13T09:29:19.990Z,3024
2017-03-13T09:30:29.096Z,3000
2017-03-13T09:31:38.092Z,2932
2017-03-13T09:32:47.095Z,2856
2017-03-13T09:33:56.403Z,2748
2017-03-13T09:35:05.417Z,2668
2017-03-13T09:36:14.606Z,2620
2017-03-13T09:37:23.596Z,2680
2017-03-13T09:38:33.008Z,2748
2017-03-13T09:39:42.502Z,2860
2017-03-13T09:40:51.532Z,3024
2017-03-13T09:42:00.550Z,3124
2017-03-13T09:43:09.816Z,3280
2017-03-13T09:44:18.896Z,3476
2017-03-13T09:45:28.155Z,3616
2017-03-13T09:46:37.336Z,3756
2017-03-13T09:47:46.332Z,3872
2017-03-13T09:48:55.335Z,3960
2017-03-13T09:50:04.739Z,3968
2017-03-13T09:51:14.243Z,3948
2017-03-13T09:52:23.381Z,3936
2017-03-13T09:53:32.368Z,3980
2017-03-13T09:54:41.362Z,3948
2017-03-13T09:55:50.445Z,3908
2017-03-13T09:56:59.813Z,3804
2017-03-13T09:58:08.922Z,3720
2017-03-13T09:59:17.932Z,3664
2017-03-13T10:00:27.440Z,3620
2017-03-13T10:01:36.468Z,3580
2017-03-13T10:02:45.806Z,3472
2017-03-13T10:03:54.913Z,3412
2017-03-13T10:05:03.934Z,3340
2017-03-13T10:06:13.034Z,3304
2017-03-13T10:07:22.175Z,3292
2017-03-13T10:08:31.883Z,3320
2017-03-13T10:09:40.894Z,3272
2017-03-13T10:10:49.902Z,3228
2017-03-13T10:11:58.894Z,3244
2017-03-13T10:13:08.219Z,3236
2017-03-13T10:14:18.039Z,3240
2017-03-13T10:15:27.037Z,3240
2017-03-13T10:16:36.042Z,3228
2017-03-13T10:17:45.864Z,3180
2017-03-13T10:18:54.939Z,3132
2017-03-13T10:20:04.331Z,3048
2017-03-13T10:21:13.438Z,3044
2017-03-13T10:22:22.618Z,3008
2017-03-13T10:23:31.605Z,2988
2017-03-13T10:24:40.789Z,3004
2017-03-13T10:25:50.016Z,3108
2017-03-13T10:26:59.030Z,3276
2017-03-13T10:28:08.028Z,3420
2017-03-13T10:29:17.023Z,3500
2017-03-13T10:30:26.274Z,3584
2017-03-13T10:31:36.140Z,3680
2017-03-13T10:32:45.127Z,3784
2017-03-13T10:33:54.216Z,3984
2017-03-13T10:35:03.208Z,4208
2017-03-13T10:36:12.304Z,4384
2017-03-13T10:37:21.636Z,4516
2017-03-13T10:38:30.744Z,4632
2017-03-13T10:39:39.849Z,4616
2017-03-13T10:40:49.026Z,4592
2017-03-13T10:41:58.128Z,4636
2017-03-13T10:43:07.580Z,4656
2017-03-13T10:44:16.587Z,4664
2017-03-13T10:45:25.894Z,4672
2017-03-13T10:46:34.891Z,4696
2017-03-13T10:47:44.008Z,4760
2017-03-13T10:48:53.295Z,4900
2017-03-13T10:50:02.406Z,4940
2017-03-13T10:51:11.396Z,4964
2017-03-13T10:52:20.419Z,5016
2017-03-13T10:53:29.501Z,4992
2017-03-13T10:54:38.879Z,4852
2017-03-13T10:55:47.960Z,4740
2017-03-13T10:56:57.062Z,4620
2017-03-13T10:58:06.062Z,4500
2017-03-13T10:59:15.055Z,4388
2017-03-13T11:00:24.483Z,4248
2017-03-13T11:01:33.906Z,4120
2017-03-13T11:02:43.009Z,4032
2017-03-13T11:03:52.202Z,3948
2017-03-13T11:05:01.201Z,3856
2017-03-13T11:06:10.506Z,3792
2017-03-13T11:07:19.497Z,3756
2017-03-13T11:08:28.497Z,3696
2017-03-13T11:09:37.495Z,3632
2017-03-13T11:10:46.639Z,3572
2017-03-13T11:11:56.028Z,3556
2017-03-13T11:13:05.035Z,3504
2017-03-13T11:14:14.046Z,3468
2017-03-13T11:15:23.050Z,3496
2017-03-13T11:16:32.160Z,3496
2017-03-13T11:17:41.463Z,3508
2017-03-13T11:18:50.580Z,3492
2017-03-13T11:19:59.680Z,3468
2017-03-13T11:21:08.687Z,3452
2017-03-13T11:22:17.676Z,3384
2017-03-13T11:23:27.085Z,3296
2017-03-13T11:24:36.086Z,3196
2017-03-13T11:25:45.216Z,3116
2017-03-13T11:26:54.215Z,3120
2017-03-13T11:28:03.234Z,3128
2017-03-13T11:29:12.629Z,3072
2017-03-13T11:30:21.628Z,3000
2017-03-13T11:31:30.616Z,2988
2017-03-13T11:32:39.711Z,3068
2017-03-13T11:33:48.716Z,3188
2017-03-13T11:34:58.508Z,3328
2017-03-13T11:36:07.666Z,3368
2017-03-13T11:37:17.395Z,3424
2017-03-13T11:38:26.385Z,3440
2017-03-13T11:39:35.399Z,3400
2017-03-13T11:40:44.653Z,3356
2017-03-13T11:41:53.661Z,3276
2017-03-13T11:43:02.677Z,3204
2017-03-13T11:44:11.690Z,3132
2017-03-13T11:45:20.678Z,3088
2017-03-13T11:46:30.057Z,3036
2017-03-13T11:47:39.168Z,3016
2017-03-13T11:48:48.190Z,2948
2017-03-13T11:49:57.217Z,2880
2017-03-13T11:51:06.220Z,2816
2017-03-13T11:52:15.521Z,2756
2017-03-13T11:53:24.519Z,2640
2017-03-13T11:54:33.511Z,2540
2017-03-13T11:55:42.924Z,2464
2017-03-13T11:56:51.936Z,2408
2017-03-13T11:58:01.296Z,2380
2017-03-13T11:59:10.294Z,2344
2017-03-13T12:00:19.812Z,2284
2017-03-13T12:01:28.898Z,2256
2017-03-13T12:02:38.482Z,2232
2017-03-13T12:03:47.800Z,2216
2017-03-13T12:04:56.791Z,2200
2017-03-13T12:06:05.787Z,2204
2017-03-13T12:07:14.798Z,2244
2017-03-13T12:08:23.805Z,2292
2017-03-13T12:09:33.525Z,2292
2017-03-13T12:10:42.542Z,2212
2017-03-13T12:11:51.661Z,2172
2017-03-13T12:13:00.741Z,2192
2017-03-13T12:14:10.154Z,2308
2017-03-13T12:15:19.540Z,2380
2017-03-13T12:16:28.810Z,2368
2017-03-13T12:17:37.809Z,2344
2017-03-13T12:18:46.896Z,2264
2017-03-13T12:19:55.910Z,2112
2017-03-13T12:21:05.198Z,2080
2017-03-13T12:22:16.329Z,2180
2017-03-13T12:23:25.505Z,2228
2017-03-13T12:24:34.509Z,2332
2017-03-13T12:25:43.508Z,2348
2017-03-13T12:26:52.752Z,2440
2017-03-13T12:28:01.842Z,2448
2017-03-13T12:29:10.855Z,2460
2017-03-13T12:30:19.888Z,2448
2017-03-13T12:31:28.909Z,2420
2017-03-13T12:32:38.160Z,2424
2017-03-13T12:33:47.262Z,2536
2017-03-13T12:34:56.455Z,2572
2017-03-13T12:36:05.565Z,2588
2017-03-13T12:37:14.567Z,2608
2017-03-13T12:38:23.822Z,2648
2017-03-13T12:39:33.419Z,2708
2017-03-13T12:40:42.524Z,2780
2017-03-13T12:41:51.522Z,2892
2017-03-13T12:43:00.519Z,2980
2017-03-13T12:44:09.829Z,3072
2017-03-13T12:45:18.850Z,3168
2017-03-13T12:46:27.866Z,3268
2017-03-13T12:47:37.034Z,3312
2017-03-13T12:48:46.154Z,3376
2017-03-13T12:49:55.427Z,3448
2017-03-13T12:51:04.423Z,3500
2017-03-13T12:54:12.477Z,3612
2017-03-13T12:55:22.101Z,3644
2017-03-13T12:56:31.274Z,3704
2017-03-13T12:57:40.292Z,3756
2017-03-13T12:58:49.469Z,3784
2017-03-13T12:59:58.473Z,3800
2017-03-13T13:01:07.707Z,3788
2017-03-13T13:02:16.781Z,3760
2017-03-13T13:03:25.934Z,3760
2017-03-13T13:04:35.079Z,3780
2017-03-13T13:05:44.141Z,3804
2017-03-13T13:06:53.357Z,3788
2017-03-13T13:08:02.406Z,3748
2017-03-13T13:09:11.454Z,3712
2017-03-13T13:10:20.495Z,3680
2017-03-13T13:11:29.464Z,3676
2017-03-13T13:12:38.682Z,3692
2017-03-13T13:13:47.733Z,3704
2017-03-13T13:14:56.781Z,3704
2017-03-13T13:16:05.742Z,3724
2017-03-13T13:17:14.790Z,3740
2017-03-13T13:18:24.057Z,3760
2017-03-13T13:19:33.027Z,3772
2017-03-13T13:20:41.993Z,3788
2017-03-13T13:21:50.954Z,3796
2017-03-13T13:22:59.919Z,3804
2017-03-13T13:24:09.154Z,3824
2017-03-13T13:25:18.118Z,3816
2017-03-13T13:26:27.168Z,3804
2017-03-13T13:27:36.246Z,3780
2017-03-13T13:28:45.212Z,3760
2017-03-13T13:29:54.427Z,3740
2017-03-13T13:31:03.391Z,3708
2017-03-13T13:32:12.393Z,3680
2017-03-13T13:33:21.361Z,3656
2017-03-13T13:34:30.833Z,3644
2017-03-13T13:35:40.180Z,3624
2017-03-13T13:36:49.148Z,3604
2017-03-13T13:37:58.118Z,3564
2017-03-13T13:39:07.080Z,3516
2017-03-13T13:40:16.128Z,3456
2017-03-13T13:41:25.584Z,3400
2017-03-13T13:42:34.560Z,3348
2017-03-13T13:43:43.928Z,3300
2017-03-13T13:44:52.894Z,3264
2017-03-13T13:46:01.857Z,3236
2017-03-13T13:47:11.072Z,3212
2017-03-13T13:48:20.058Z,3192
2017-03-13T13:49:29.031Z,3168
2017-03-13T13:50:37.996Z,3148
2017-03-13T13:51:47.045Z,3112
2017-03-13T13:52:56.487Z,3080
2017-03-13T13:54:05.455Z,3056
2017-03-13T13:55:14.414Z,3028
2017-03-13T13:56:23.377Z,3004
2017-03-13T13:57:32.356Z,2976
2017-03-13T13:58:41.796Z,2948
2017-03-13T13:59:50.763Z,2920
2017-03-13T14:00:59.758Z,2896
2017-03-13T14:02:08.722Z,2880
2017-03-13T14:03:17.776Z,2868
2017-03-13T14:04:27.033Z,2848
2017-03-13T14:05:35.999Z,2832
2017-03-13T14:06:45.044Z,2804
2017-03-13T14:07:54.134Z,2780
2017-03-13T14:09:03.100Z,2756
2017-03-13T14:10:12.456Z,2736
2017-03-13T14:11:21.421Z,2708
2017-03-13T14:12:31.296Z,2688
2017-03-13T14:13:40.262Z,2668
2017-03-13T14:14:49.222Z,2660
2017-03-13T14:15:58.610Z,2652
2017-03-13T14:17:07.583Z,2644
2017-03-13T14:18:16.548Z,2636
2017-03-13T14:19:25.517Z,2616
2017-03-13T14:20:34.513Z,2584
2017-03-13T14:21:43.794Z,2540
2017-03-13T14:22:52.764Z,2496
2017-03-13T14:24:01.733Z,2452
2017-03-13T14:25:10.697Z,2428
2017-03-13T14:26:19.749Z,2424
2017-03-13T14:27:29.099Z,2424
2017-03-13T14:28:38.301Z,2432
2017-03-13T14:29:47.264Z,2444
2017-03-13T14:30:56.228Z,2452
2017-03-13T14:32:05.195Z,2452
2017-03-13T14:33:14.452Z,2436
2017-03-13T14:34:23.415Z,2412
2017-03-13T14:35:32.383Z,2376
2017-03-13T14:36:41.344Z,2344
2017-03-13T14:37:50.301Z,2300
2017-03-13T14:38:59.567Z,2256
2017-03-13T14:40:08.525Z,2208
2017-03-13T14:41:17.564Z,2160
2017-03-13T14:42:26.529Z,2120
2017-03-13T14:43:35.488Z,2076
2017-03-13T14:44:44.698Z,2044
2017-03-13T14:45:53.661Z,2004
2017-03-13T14:47:03.037Z,1972
2017-03-13T14:48:11.996Z,1944
2017-03-13T14:49:20.986Z,1924
2017-03-13T14:50:30.251Z,1904
2017-03-13T14:51:40.561Z,1892
2017-03-13T14:52:50.841Z,1880
2017-03-13T14:54:00.311Z,1872
2017-03-13T14:55:09.274Z,1864
2017-03-13T14:56:18.492Z,1852
2017-03-13T14:57:27.540Z,1836
2017-03-13T14:58:36.501Z,1828
2017-03-13T14:59:45.552Z,1804
2017-03-13T15:00:54.517Z,1780
2017-03-13T15:02:03.784Z,1756
2017-03-13T15:03:12.746Z,1728
2017-03-13T15:04:21.717Z,1708
2017-03-13T15:05:30.781Z,1684
2017-03-13T15:06:39.747Z,1668
2017-03-13T15:07:49.012Z,1656
2017-03-13T15:08:57.997Z,1648
2017-03-13T15:10:07.099Z,1636
2017-03-13T15:11:16.061Z,1628
2017-03-13T15:12:25.022Z,1616
2017-03-13T15:13:34.289Z,1600
2017-03-13T15:14:43.257Z,1580
2017-03-13T15:15:52.220Z,1560
2017-03-13T15:17:01.176Z,1416
2017-03-13T15:18:10.231Z,1392
2017-03-13T15:19:19.582Z,1376
2017-03-13T15:20:28.544Z,1364
2017-03-13T15:21:37.508Z,1348
2017-03-13T15:22:46.464Z,1336
2017-03-13T15:23:55.427Z,1324
2017-03-13T15:25:04.639Z,1308
2017-03-13T15:26:13.610Z,1288
2017-03-13T15:27:22.658Z,1268
2017-03-13T15:28:31.619Z,1248
2017-03-13T15:29:40.581Z,1224
2017-03-13T15:30:49.847Z,1196
2017-03-13T15:31:58.811Z,1176
2017-03-13T15:33:07.777Z,1156
2017-03-13T15:34:16.800Z,1248
2017-03-13T15:35:25.941Z,1224
2017-03-13T15:36:35.199Z,1200
2017-03-13T15:37:44.253Z,1184
2017-03-13T15:38:53.212Z,1168
2017-03-13T15:40:02.174Z,1152
2017-03-13T15:41:11.142Z,1132
2017-03-13T15:42:20.405Z,1120
2017-03-13T15:43:29.456Z,1108
2017-03-13T15:44:38.615Z,1096
2017-03-13T15:45:47.581Z,1084
2017-03-13T15:46:56.543Z,1068
2017-03-13T15:48:05.812Z,1052
2017-03-13T15:49:14.780Z,1032
2017-03-13T15:50:23.736Z,1016
2017-03-13T15:51:33.111Z,1000
2017-03-13T15:52:42.164Z,980
2017-03-13T15:53:51.379Z,960
2017-03-13T15:55:00.344Z,944
2017-03-13T15:56:09.305Z,932
2017-03-13T15:57:18.273Z,916
2017-03-13T15:58:27.651Z,892
2017-03-13T15:59:37.314Z,864